Time;durP1;ratioP1;P1;durP2;ratioP2;P2;SDS_P1;SDS_P2;PMS_P1;PMS_P2;Temp;Humidity;BMP_temperature;BMP_pressure;BME280_temperature;BME280_humidity;BME280_pressure;Samples;Min_cycle;Max_cycle;Signal;HPM_P1;HPM_P2
2024/02/13 00:00:14;;;;;;;13.45;6.80;;;;;;;6.39;100.00;101294.16;5109459;27;20051;-67
2024/02/13 00:03:05;;;;;;;15.35;7.18;;;;;;;6.37;100.00;101300.88;5112856;28;20555;-68
2024/02/13 00:05:53;;;;;;;13.52;6.70;;;;;;;6.37;100.00;101301.72;5099043;28;20450;-67
2024/02/13 00:08:41;;;;;;;12.95;6.72;;;;;;;6.36;100.00;101300.03;5094698;28;20417;-67
2024/02/13 00:11:33;;;;;;;16.90;9.95;;;;;;;6.38;100.00;101308.78;5107623;28;20530;-67
2024/02/13 00:14:21;;;;;;;11.23;6.65;;;;;;;6.41;100.00;101312.91;5102636;27;20146;-67
2024/02/13 00:17:09;;;;;;;13.30;7.53;;;;;;;6.37;100.00;101308.97;5081757;28;20054;-68
2024/02/13 00:19:57;;;;;;;13.70;7.03;;;;;;;6.35;100.00;101306.53;5114003;28;20052;-68
2024/02/13 00:22:48;;;;;;;16.95;7.63;;;;;;;6.35;100.00;101314.66;5098787;28;20128;-68
2024/02/13 00:25:36;;;;;;;17.75;8.63;;;;;;;6.33;100.00;101322.16;5100466;28;20140;-68
2024/02/13 00:28:24;;;;;;;13.50;7.82;;;;;;;6.33;100.00;101326.75;5100309;28;20047;-68
2024/02/13 00:31:12;;;;;;;15.20;7.45;;;;;;;6.33;100.00;101324.88;5122829;27;20416;-68
2024/02/13 00:34:21;;;;;;;13.57;6.93;;;;;;;6.30;100.00;101325.31;5089450;28;20054;-68
2024/02/13 00:37:10;;;;;;;13.48;7.05;;;;;;;6.28;100.00;101335.56;5078894;28;20048;-68
2024/02/13 00:39:58;;;;;;;14.32;6.75;;;;;;;6.28;100.00;101332.03;5092832;28;20054;-68
2024/02/13 00:42:51;;;;;;;13.68;7.28;;;;;;;6.27;100.00;101336.59;5103160;27;20032;-68
2024/02/13 00:45:39;;;;;;;14.95;7.55;;;;;;;6.26;100.00;101332.25;5110368;28;20578;-68
2024/02/13 00:48:31;;;;;;;13.00;6.63;;;;;;;6.26;100.00;101337.66;5098452;28;20130;-67
2024/02/13 00:51:20;;;;;;;11.48;5.93;;;;;;;6.25;100.00;101329.75;5098294;28;20042;-68
2024/02/13 00:54:13;;;;;;;13.70;6.88;;;;;;;6.22;100.00;101328.31;5086728;28;20048;-68
2024/02/13 00:57:03;;;;;;;14.40;6.07;;;;;;;6.21;100.00;101332.09;5092483;28;20055;-68
2024/02/13 00:59:51;;;;;;;12.32;5.80;;;;;;;6.22;100.00;101333.72;5113911;28;20043;-67
2024/02/13 01:02:40;;;;;;;12.45;6.25;;;;;;;6.21;100.00;101334.81;5096601;28;20089;-68
2024/02/13 01:05:32;;;;;;;12.70;6.10;;;;;;;6.19;100.00;101342.31;5094811;27;20050;-67
2024/02/13 01:08:23;;;;;;;13.15;6.45;;;;;;;6.19;100.00;101339.59;5106595;28;20044;-60
2024/02/13 01:11:12;;;;;;;11.90;5.93;;;;;;;6.18;100.00;101337.94;5130353;28;20606;-66
2024/02/13 01:14:01;;;;;;;14.32;6.05;;;;;;;6.18;100.00;101348.75;5113192;28;20048;-65
2024/02/13 01:16:49;;;;;;;12.13;5.85;;;;;;;6.18;100.00;101352.31;5089835;28;20062;-67
2024/02/13 01:19:37;;;;;;;13.60;5.78;;;;;;;6.18;100.00;101359.59;5096495;28;20111;-59
2024/02/13 01:22:25;;;;;;;12.68;6.05;;;;;;;6.17;100.00;101352.53;5093770;28;20047;-64
2024/02/13 01:25:14;;;;;;;13.52;6.30;;;;;;;6.15;100.00;101362.75;5105256;28;20099;-66
2024/02/13 01:28:02;;;;;;;10.40;5.65;;;;;;;6.14;100.00;101358.41;5114157;27;20069;-67
2024/02/13 01:30:50;;;;;;;13.88;6.50;;;;;;;6.15;100.00;101360.88;5101998;28;20054;-67
2024/02/13 01:33:38;;;;;;;12.13;5.80;;;;;;;6.15;100.00;101368.97;5077954;28;20044;-67
2024/02/13 01:36:27;;;;;;;11.50;5.65;;;;;;;6.13;100.00;101363.00;5075942;28;20048;-66
2024/02/13 01:39:15;;;;;;;12.10;5.97;;;;;;;6.14;100.00;101361.09;5109128;28;20093;-67
2024/02/13 01:42:03;;;;;;;10.68;5.82;;;;;;;6.14;100.00;101371.94;5109855;28;20044;-66
2024/02/13 01:44:53;;;;;;;12.85;6.40;;;;;;;6.10;100.00;101366.13;5106076;28;20047;-67
2024/02/13 01:47:44;;;;;;;14.63;5.93;;;;;;;6.08;100.00;101367.41;5084555;28;20043;-68
2024/02/13 01:50:36;;;;;;;9.65;4.88;;;;;;;6.10;100.00;101370.72;5098278;28;20043;-67
2024/02/13 01:53:27;;;;;;;9.70;5.28;;;;;;;6.11;100.00;101372.34;5113396;28;20043;-67
2024/02/13 01:56:15;;;;;;;12.65;6.20;;;;;;;6.09;100.00;101364.47;5098177;28;20111;-67
2024/02/13 01:59:04;;;;;;;13.07;5.35;;;;;;;6.08;100.00;101372.81;5112314;28;20047;-67
2024/02/13 02:01:55;;;;;;;9.00;5.03;;;;;;;6.07;100.00;101371.19;5097359;28;20123;-67
2024/02/13 02:04:43;;;;;;;10.80;5.43;;;;;;;6.07;100.00;101373.88;5098177;28;20272;-68
2024/02/13 02:07:32;;;;;;;11.48;5.82;;;;;;;6.06;100.00;101374.91;5106367;28;20124;-68
2024/02/13 02:10:20;;;;;;;13.98;6.05;;;;;;;6.04;100.00;101371.59;5097513;28;20210;-68
2024/02/13 02:13:09;;;;;;;12.48;6.20;;;;;;;6.05;100.00;101373.28;5083757;28;20440;-67
2024/02/13 02:16:02;;;;;;;12.88;6.35;;;;;;;6.04;100.00;101379.72;5091256;28;20044;-67
2024/02/13 02:18:53;;;;;;;12.50;6.28;;;;;;;6.01;100.00;101372.06;5082539;28;20411;-67
2024/02/13 02:21:41;;;;;;;14.18;6.85;;;;;;;6.01;100.00;101382.88;5112027;28;20491;-67
2024/02/13 02:24:30;;;;;;;10.32;6.07;;;;;;;6.01;100.00;101388.28;5112283;28;20065;-68
2024/02/13 02:27:23;;;;;;;13.35;6.00;;;;;;;6.01;100.00;101389.09;5101449;28;20126;-67
2024/02/13 02:30:17;;;;;;;14.25;6.90;;;;;;;5.98;100.00;101384.97;5093397;27;20554;-67
2024/02/13 02:33:15;;;;;;;13.32;6.68;;;;;;;5.97;100.00;101388.75;5108331;27;20054;-67
2024/02/13 02:36:04;;;;;;;11.52;6.03;;;;;;;5.94;100.00;101388.34;5130756;27;20122;-67
2024/02/13 02:38:53;;;;;;;11.23;6.43;;;;;;;5.96;100.00;101386.25;5079744;28;20059;-67
2024/02/13 02:41:41;;;;;;;11.85;6.32;;;;;;;5.93;100.00;101392.91;5095813;28;20389;-67
2024/02/13 02:44:30;;;;;;;13.63;6.93;;;;;;;5.93;100.00;101394.78;5080192;28;20071;-68
2024/02/13 02:47:18;;;;;;;9.57;5.50;;;;;;;5.92;100.00;101385.03;5067981;28;20037;-67
2024/02/13 02:50:06;;;;;;;12.30;6.35;;;;;;;5.90;100.00;101393.34;5117859;27;20035;-66
2024/02/13 02:52:54;;;;;;;14.02;6.70;;;;;;;5.88;100.00;101395.44;5134881;27;20080;-67
2024/02/13 02:55:42;;;;;;;12.95;6.55;;;;;;;5.86;100.00;101389.44;5109045;28;20057;-66
2024/02/13 02:58:30;;;;;;;14.00;6.55;;;;;;;5.87;100.00;101393.81;5112074;28;20080;-67
2024/02/13 03:01:18;;;;;;;11.18;6.40;;;;;;;5.87;100.00;101393.81;5099834;28;20048;-68
2024/02/13 03:04:07;;;;;;;13.00;5.70;;;;;;;5.88;100.00;101390.03;5081604;28;20055;-67
2024/02/13 03:06:59;;;;;;;12.32;6.13;;;;;;;5.89;100.00;101386.31;5066786;28;20056;-68
2024/02/13 03:09:48;;;;;;;12.38;5.80;;;;;;;5.89;100.00;101391.72;5079830;28;20089;-67
2024/02/13 03:12:37;;;;;;;13.23;6.20;;;;;;;5.89;100.00;101391.72;5079690;28;20097;-68
2024/02/13 03:15:27;;;;;;;12.68;6.53;;;;;;;5.88;100.00;101390.03;5102416;27;20120;-68
2024/02/13 03:18:15;;;;;;;12.50;6.63;;;;;;;5.87;100.00;101390.25;5099751;28;20071;-67
2024/02/13 03:21:04;;;;;;;12.52;6.88;;;;;;;5.87;100.00;101393.81;5114328;28;20147;-67
2024/02/13 03:23:52;;;;;;;11.60;5.80;;;;;;;5.87;100.00;101387.56;5085947;28;20446;-66
2024/02/13 03:26:40;;;;;;;13.75;6.85;;;;;;;5.84;100.00;101398.81;5112539;28;20518;-67
2024/02/13 03:29:48;;;;;;;13.55;6.60;;;;;;;5.84;100.00;101399.63;5083334;28;20046;-67
2024/02/13 03:32:36;;;;;;;12.23;6.45;;;;;;;5.84;100.00;101391.53;5093988;28;20504;-67
2024/02/13 03:35:25;;;;;;;14.18;6.60;;;;;;;5.85;100.00;101395.09;5093841;28;20058;-66
2024/02/13 03:38:14;;;;;;;11.95;6.32;;;;;;;5.82;100.00;101392.81;5089968;28;20047;-67
2024/02/13 03:41:02;;;;;;;13.23;5.88;;;;;;;5.81;100.00;101402.78;5094733;28;20044;-66
2024/02/13 03:43:50;;;;;;;15.40;6.38;;;;;;;5.81;100.00;101410.91;5099459;28;20048;-68
2024/02/13 03:46:39;;;;;;;11.13;6.15;;;;;;;5.80;100.00;101403.84;5098619;28;20047;-67
2024/02/13 03:49:27;;;;;;;11.63;6.22;;;;;;;5.79;100.00;101406.78;5100858;28;20197;-67
2024/02/13 03:52:16;;;;;;;11.30;6.05;;;;;;;5.78;100.00;101410.53;5098654;27;20050;-67
2024/02/13 03:55:05;;;;;;;12.35;6.25;;;;;;;5.75;100.00;101406.41;5128894;27;20399;-69
2024/02/13 03:57:55;;;;;;;10.10;5.90;;;;;;;5.74;100.00;101415.53;5113600;28;20495;-69
2024/02/13 04:00:44;;;;;;;15.38;6.35;;;;;;;5.74;100.00;101420.97;5115067;28;20052;-69
2024/02/13 04:03:32;;;;;;;12.43;6.40;;;;;;;5.75;100.00;101428.03;5101621;28;20047;-67
2024/02/13 04:06:21;;;;;;;10.82;5.78;;;;;;;5.74;100.00;101429.88;5059000;28;20048;-68
2024/02/13 04:09:10;;;;;;;11.85;6.07;;;;;;;5.74;100.00;101423.66;5086424;28;20471;-67
2024/02/13 04:11:58;;;;;;;12.98;6.30;;;;;;;5.71;100.00;101424.09;5113867;28;20048;-67
2024/02/13 04:14:46;;;;;;;13.27;6.82;;;;;;;5.71;100.00;101424.09;5113726;28;20507;-67
2024/02/13 04:17:34;;;;;;;10.50;5.78;;;;;;;5.70;100.00;101431.41;5091063;28;20036;-67
2024/02/13 04:20:22;;;;;;;9.85;5.60;;;;;;;5.70;100.00;101425.13;5106010;28;20040;-67
2024/02/13 04:23:10;;;;;;;13.35;6.63;;;;;;;5.67;100.00;101437.22;5089409;28;20488;-68
2024/02/13 04:25:59;;;;;;;11.57;5.95;;;;;;;5.67;100.00;101441.81;5096871;28;20043;-67
2024/02/13 04:28:48;;;;;;;10.55;5.20;;;;;;;5.66;100.00;101435.59;5102329;28;20208;-67
2024/02/13 04:31:38;;;;;;;13.25;5.95;;;;;;;5.64;100.00;101432.25;5084907;28;20499;-66
2024/02/13 04:34:27;;;;;;;9.45;5.30;;;;;;;5.63;100.00;101429.78;5092620;28;20051;-66
2024/02/13 04:37:18;;;;;;;12.55;6.40;;;;;;;5.61;100.00;101431.91;5078181;28;20609;-67
2024/02/13 04:40:07;;;;;;;12.38;6.78;;;;;;;5.60;100.00;101449.16;5093123;28;20412;-68
2024/02/13 04:43:17;;;;;;;14.35;6.57;;;;;;;5.60;100.00;101443.75;5101332;28;20104;-68
2024/02/13 04:46:06;;;;;;;10.85;6.10;;;;;;;5.58;100.00;101453.94;5098549;28;20126;-67
2024/02/13 04:48:54;;;;;;;10.10;5.88;;;;;;;5.54;100.00;101443.56;5113317;28;20132;-68
2024/02/13 04:51:43;;;;;;;10.73;5.60;;;;;;;5.53;100.00;101438.38;5082350;28;20572;-67
2024/02/13 04:54:32;;;;;;;14.45;6.07;;;;;;;5.52;100.00;101445.66;5103968;27;20507;-67
2024/02/13 04:57:22;;;;;;;10.07;5.20;;;;;;;5.54;100.00;101445.44;5098479;28;20127;-68
2024/02/13 05:00:24;;;;;;;12.23;5.68;;;;;;;5.54;100.00;101443.56;5078872;28;20081;-68
2024/02/13 05:03:24;;;;;;;11.93;5.85;;;;;;;5.54;100.00;101442.75;5071727;28;20186;-68
2024/02/13 05:09:20;;;;;;;13.18;6.10;;;;;;;5.50;100.00;101436.94;5101727;28;20048;-68
2024/02/13 05:12:08;;;;;;;14.52;5.78;;;;;;;5.50;100.00;101431.53;5096064;28;20051;-68
2024/02/13 05:14:59;;;;;;;12.05;5.22;;;;;;;5.51;100.00;101441.31;5098116;28;20051;-68
2024/02/13 05:17:48;;;;;;;10.00;4.97;;;;;;;5.50;100.00;101447.75;5083941;28;20079;-68
2024/02/13 05:20:36;;;;;;;10.82;5.25;;;;;;;5.50;100.00;101447.75;5112028;28;20121;-67
2024/02/13 05:23:25;;;;;;;12.38;5.47;;;;;;;5.50;100.00;101441.53;5097272;28;20503;-66
2024/02/13 05:26:20;;;;;;;10.00;5.00;;;;;;;5.47;100.00;101437.38;5098762;28;20043;-67
2024/02/13 05:29:08;;;;;;;13.15;5.20;;;;;;;5.45;100.00;101444.06;5082549;28;20067;-60
2024/02/13 05:31:56;;;;;;;11.18;5.20;;;;;;;5.48;100.00;101446.31;5114624;28;20024;-61
2024/02/13 05:34:44;;;;;;;11.77;5.28;;;;;;;5.44;100.00;101443.22;5107758;28;20049;-67
2024/02/13 05:37:33;;;;;;;11.40;4.70;;;;;;;5.42;100.00;101437.22;5117331;28;20103;-60
2024/02/13 05:40:21;;;;;;;13.05;5.22;;;;;;;5.40;100.00;101444.72;5130374;28;20043;-58
2024/02/13 05:43:11;;;;;;;11.75;5.40;;;;;;;5.40;100.00;101443.88;5093163;28;20058;-65
2024/02/13 05:45:59;;;;;;;10.50;4.35;;;;;;;5.41;100.00;101449.09;5080260;28;20454;-68
2024/02/13 05:48:49;;;;;;;8.90;4.18;;;;;;;5.41;100.00;101449.09;5076561;28;20044;-67
2024/02/13 05:51:37;;;;;;;11.32;5.78;;;;;;;5.41;100.00;101445.53;5094767;28;20051;-67
2024/02/13 05:54:26;;;;;;;10.75;5.20;;;;;;;5.41;100.00;101449.09;5083068;28;20048;-67
2024/02/13 05:57:14;;;;;;;10.88;4.80;;;;;;;5.39;100.00;101445.78;5123204;27;20430;-67
2024/02/13 06:00:02;;;;;;;11.73;4.90;;;;;;;5.40;100.00;101450.13;5130485;27;20154;-66
2024/02/13 06:03:00;;;;;;;9.98;4.65;;;;;;;5.39;100.00;101448.47;5119318;27;20043;-68
2024/02/13 06:05:49;;;;;;;11.80;4.85;;;;;;;5.40;100.00;101452.00;5083417;28;20039;-67
2024/02/13 06:08:39;;;;;;;10.00;4.05;;;;;;;5.39;100.00;101445.78;5098393;28;20380;-69
2024/02/13 06:11:28;;;;;;;8.73;3.92;;;;;;;5.40;100.00;101452.81;5071468;28;20126;-68
2024/02/13 06:14:20;;;;;;;12.00;5.35;;;;;;;5.38;100.00;101454.09;5077920;28;20044;-68
2024/02/13 06:17:09;;;;;;;9.43;4.80;;;;;;;5.37;100.00;101452.44;5093168;28;20095;-68
2024/02/13 06:20:02;;;;;;;8.35;4.32;;;;;;;5.36;100.00;101448.88;5064193;28;20052;-69
2024/02/13 06:22:51;;;;;;;9.27;4.38;;;;;;;5.37;100.00;101447.03;5069813;28;20047;-68
2024/02/13 06:25:39;;;;;;;10.90;4.43;;;;;;;5.38;100.00;101457.59;5111024;28;20177;-67
2024/02/13 06:28:26;;;;;;;8.98;4.10;;;;;;;5.41;100.00;101462.59;5110587;28;20032;-68
2024/02/13 06:31:15;;;;;;;10.05;4.15;;;;;;;5.42;100.00;101460.72;5082482;28;20055;-69
2024/02/13 06:34:03;;;;;;;8.25;3.78;;;;;;;5.46;100.00;101456.50;5069749;28;20622;-68
2024/02/13 06:36:52;;;;;;;11.55;4.70;;;;;;;5.37;100.00;101463.25;5096516;28;20046;-68
2024/02/13 06:39:40;;;;;;;13.27;5.25;;;;;;;5.18;100.00;101460.44;5097417;28;20415;-67
2024/02/13 06:42:30;;;;;;;15.18;5.40;;;;;;;5.12;100.00;101462.13;5108544;28;20555;-67
2024/02/13 06:45:18;;;;;;;10.63;4.88;;;;;;;5.06;100.00;101459.47;4378115;28;9999914;-66
2024/02/13 06:48:07;;;;;;;10.70;5.10;;;;;;;5.02;100.00;101461.75;5087887;28;20492;-68
2024/02/13 06:50:55;;;;;;;14.68;4.20;;;;;;;5.06;100.00;101463.00;5109308;28;20113;-67
2024/02/13 06:53:43;;;;;;;18.70;5.60;;;;;;;5.18;100.00;101475.81;5113108;28;20054;-67
2024/02/13 06:56:34;;;;;;;11.93;4.50;;;;;;;5.21;100.00;101475.38;5124646;28;20108;-66
2024/02/13 06:59:22;;;;;;;11.60;4.38;;;;;;;5.23;100.00;101478.69;5123048;28;20123;-67
2024/02/13 07:02:10;;;;;;;14.30;4.50;;;;;;;5.21;100.00;101492.41;5074403;28;20059;-67
2024/02/13 07:04:59;;;;;;;13.45;4.18;;;;;;;5.22;100.00;101491.38;5074849;28;20500;-68
2024/02/13 07:07:48;;;;;;;11.15;4.88;;;;;;;5.21;100.00;101492.41;5093285;28;20131;-68
2024/02/13 07:10:37;;;;;;;9.15;4.40;;;;;;;5.21;100.00;101499.69;5080335;28;20491;-69
2024/02/13 07:13:37;;;;;;;11.82;4.10;;;;;;;5.20;100.00;101500.75;5110406;28;20071;-67
2024/02/13 07:16:25;;;;;;;10.20;4.38;;;;;;;5.22;100.00;101499.50;5104332;27;20043;-67
2024/02/13 07:19:14;;;;;;;11.85;4.53;;;;;;;5.23;100.00;101494.91;5112399;28;20423;-67
2024/02/13 07:22:02;;;;;;;13.38;4.85;;;;;;;5.22;100.00;101495.94;5099398;28;20423;-67
2024/02/13 07:24:50;;;;;;;9.20;4.18;;;;;;;5.22;100.00;101493.25;5103258;28;20085;-68
2024/02/13 07:27:40;;;;;;;11.98;4.60;;;;;;;5.26;100.00;101505.28;5076172;28;20059;-68
2024/02/13 07:30:28;;;;;;;9.23;4.40;;;;;;;5.16;100.00;101513.84;5094806;28;20104;-66
2024/02/13 07:33:16;;;;;;;14.10;4.80;;;;;;;5.08;100.00;101506.81;5087656;28;20084;-64
2024/02/13 07:36:05;;;;;;;15.20;5.28;;;;;;;5.04;100.00;101513.69;5091527;28;20050;-65
2024/02/13 07:38:56;;;;;;;12.93;4.97;;;;;;;5.03;100.00;101516.63;5096655;28;20051;-66
2024/02/13 07:41:44;;;;;;;16.60;4.90;;;;;;;5.00;100.00;101523.25;5082419;28;20046;-63
2024/02/13 07:44:32;;;;;;;13.35;5.07;;;;;;;5.00;100.00;101514.31;5099608;28;20036;-64
2024/02/13 07:47:21;;;;;;;12.95;5.18;;;;;;;5.00;100.00;101522.44;5079733;28;20044;-68
2024/02/13 07:50:09;;;;;;;13.63;5.07;;;;;;;5.00;100.00;101525.94;5096432;28;20524;-67
2024/02/13 07:52:58;;;;;;;14.90;5.18;;;;;;;4.98;100.00;101528.06;5110984;28;20051;-67
2024/02/13 07:55:48;;;;;;;12.85;4.53;;;;;;;5.02;100.00;101526.56;5099409;27;20036;-68
2024/02/13 07:58:36;;;;;;;14.40;5.20;;;;;;;5.16;100.00;101527.34;5090983;28;20530;-68
2024/02/13 08:01:28;;;;;;;15.27;5.38;;;;;;;5.21;100.00;101529.41;5080057;28;20055;-68
2024/02/13 08:04:18;;;;;;;13.13;4.63;;;;;;;5.23;100.00;101533.56;5079474;28;20044;-68
2024/02/13 08:07:08;;;;;;;11.82;4.72;;;;;;;5.28;100.00;101530.22;5080705;28;20036;-68
2024/02/13 08:09:56;;;;;;;14.80;5.75;;;;;;;5.23;100.00;101532.72;5066411;28;20051;-67
2024/02/13 08:12:45;;;;;;;13.82;4.88;;;;;;;5.16;100.00;101538.16;5090205;28;20408;-68
2024/02/13 08:15:33;;;;;;;14.63;5.35;;;;;;;5.13;100.00;101536.72;5108678;28;20051;-68
2024/02/13 08:18:21;;;;;;;15.15;5.50;;;;;;;5.15;100.00;101546.47;5096538;28;20131;-67
2024/02/13 08:21:09;;;;;;;16.10;5.68;;;;;;;5.12;100.00;101545.03;5077212;28;20048;-69
2024/02/13 08:23:57;;;;;;;12.05;4.75;;;;;;;5.13;100.00;101552.94;5096172;28;20044;-67
2024/02/13 08:26:46;;;;;;;13.02;5.38;;;;;;;5.15;100.00;101557.28;5082195;28;20488;-68
2024/02/13 08:29:34;;;;;;;16.13;6.03;;;;;;;5.13;100.00;101555.63;5093559;28;20048;-68
2024/02/13 08:32:24;;;;;;;15.05;5.38;;;;;;;5.16;100.00;101548.16;5077810;28;20043;-67
2024/02/13 08:35:12;;;;;;;13.25;5.72;;;;;;;5.17;100.00;101557.88;5109224;28;20491;-68
2024/02/13 08:38:02;;;;;;;16.20;5.45;;;;;;;5.18;100.00;101551.47;5096837;28;20132;-68
2024/02/13 08:40:50;;;;;;;18.20;5.72;;;;;;;5.20;100.00;101555.59;5091189;28;20430;-68
2024/02/13 08:43:38;;;;;;;15.40;5.13;;;;;;;5.25;100.00;101555.78;5094793;28;20067;-69
2024/02/13 08:46:26;;;;;;;37.40;11.13;;;;;;;5.45;100.00;101552.97;5064601;28;20575;-68
2024/02/13 08:49:14;;;;;;;36.22;10.18;;;;;;;5.57;100.00;101560.41;5092122;28;20193;-68
2024/02/13 08:52:04;;;;;;;17.60;5.97;;;;;;;5.59;100.00;101569.97;5080540;28;20121;-67
2024/02/13 08:54:52;;;;;;;24.65;8.10;;;;;;;5.80;100.00;101559.84;5093887;28;20523;-67
2024/02/13 08:57:40;;;;;;;11.02;4.82;;;;;;;5.89;100.00;101564.81;5094222;28;20061;-68
2024/02/13 09:00:29;;;;;;;12.55;4.78;;;;;;;5.81;100.00;101562.34;5113091;28;20387;-66
2024/02/13 09:03:26;;;;;;;26.42;7.18;;;;;;;5.76;100.00;101554.88;5099064;28;20415;-66
2024/02/13 09:06:15;;;;;;;29.17;8.63;;;;;;;5.94;100.00;101556.03;5113191;28;20040;-67
2024/02/13 09:09:04;;;;;;;25.20;8.07;;;;;;;6.07;100.00;101560.53;5113574;27;20051;-67
2024/02/13 09:11:52;;;;;;;14.48;5.40;;;;;;;6.09;100.00;101561.16;5112285;28;20043;-67
2024/02/13 09:14:40;;;;;;;22.20;7.00;;;;;;;5.96;100.00;101554.78;5098648;28;20040;-67
2024/02/13 09:17:30;;;;;;;22.10;7.18;;;;;;;5.96;100.00;101565.63;5097086;28;20040;-68
2024/02/13 09:20:21;;;;;;;17.25;5.30;;;;;;;6.02;100.00;101576.59;5098383;28;20480;-67
2024/02/13 09:23:09;;;;;;;19.02;5.80;;;;;;;6.00;100.00;101578.69;5095673;28;20177;-67
2024/02/13 09:25:59;;;;;;;14.00;4.70;;;;;;;5.90;100.00;101582.69;5113908;28;20080;-67
2024/02/13 09:28:47;;;;;;;13.48;4.30;;;;;;;5.85;100.00;101576.28;5084736;28;20044;-68
2024/02/13 09:31:35;;;;;;;14.65;5.57;;;;;;;6.08;100.00;101573.81;5098093;28;20556;-67
2024/02/13 09:34:23;;;;;;;14.27;5.03;;;;;;;6.02;100.00;101579.31;5094700;27;20058;-67
2024/02/13 09:37:13;;;;;;;18.20;5.32;;;;;;;6.24;100.00;101583.28;5132608;27;20047;-67
2024/02/13 09:40:01;;;;;;;11.57;4.40;;;;;;;6.19;100.00;101585.84;5134125;27;20286;-68
2024/02/13 09:42:50;;;;;;;12.02;4.40;;;;;;;6.09;100.00;101585.50;5108270;28;20139;-66
2024/02/13 09:45:40;;;;;;;10.70;3.80;;;;;;;6.04;100.00;101593.41;5101951;28;20580;-65
2024/02/13 09:48:29;;;;;;;13.80;4.57;;;;;;;6.10;100.00;101597.97;5119575;27;20066;-66
2024/02/13 09:51:18;;;;;;;11.02;4.10;;;;;;;6.10;100.00;101587.16;5135799;27;20051;-64
2024/02/13 09:54:08;;;;;;;11.00;4.30;;;;;;;6.11;100.00;101586.94;5101685;28;20020;-62
2024/02/13 09:56:57;;;;;;;14.35;4.65;;;;;;;6.23;100.00;101594.31;5119034;28;20059;-65
2024/02/13 09:59:45;;;;;;;15.77;4.93;;;;;;;6.32;100.00;101588.41;5116627;27;20039;-68
2024/02/13 10:02:38;;;;;;;12.25;4.65;;;;;;;6.45;100.00;101592.09;5100071;28;20047;-67
2024/02/13 10:05:27;;;;;;;11.85;4.57;;;;;;;6.38;100.00;101584.84;5100732;28;20458;-68
2024/02/13 10:08:20;;;;;;;10.43;4.20;;;;;;;6.40;100.00;101585.44;5117853;28;20047;-68
2024/02/13 10:11:11;;;;;;;9.68;3.53;;;;;;;6.43;100.00;101588.78;5098741;28;20419;-68
2024/02/13 10:13:59;;;;;;;11.38;4.20;;;;;;;6.56;100.00;101589.47;5082944;28;20291;-66
2024/02/13 10:16:50;;;;;;;13.68;5.15;;;;;;;6.76;100.00;101591.19;5098688;28;20047;-68
2024/02/13 10:19:39;;;;;;;14.73;4.78;;;;;;;6.70;100.00;101594.75;5098349;28;20065;-67
2024/02/13 10:22:27;;;;;;;12.55;4.90;;;;;;;6.58;100.00;101594.66;5097182;28;20040;-67
2024/02/13 10:25:18;;;;;;;11.23;4.63;;;;;;;6.59;100.00;101596.31;5106443;28;20050;-67
2024/02/13 10:28:14;;;;;;;;;;;;;;;6.95;100.00;101583.88;5096089;28;20043;-67
2024/02/13 10:31:02;;;;;;;13.38;5.43;;;;;;;7.20;100.00;101586.53;5113176;28;19924;-68
2024/02/13 10:33:50;;;;;;;11.35;4.00;;;;;;;7.13;100.00;101591.19;5096639;28;20105;-69
2024/02/13 10:36:42;;;;;;;16.23;5.88;;;;;;;7.34;100.00;101588.03;5089408;28;20094;-68
2024/02/13 10:39:32;;;;;;;17.63;5.80;;;;;;;7.55;100.00;101581.28;5095187;28;20101;-68
2024/02/13 10:42:20;;;;;;;18.75;4.63;;;;;;;7.78;100.00;101572.41;5097985;28;20043;-70
2024/02/13 10:45:11;;;;;;;14.02;4.75;;;;;;;7.58;100.00;101580.81;5087112;28;20048;-68
2024/02/13 10:48:16;;;;;;;16.52;5.32;;;;;;;7.59;100.00;101585.19;5070710;28;20070;-69
2024/02/13 10:51:06;;;;;;;14.60;5.47;;;;;;;7.48;100.00;101575.13;5104111;27;20047;-69
2024/02/13 10:53:57;;;;;;;11.10;4.80;;;;;;;7.56;100.00;101582.94;5093415;27;20171;-69
2024/02/13 10:56:45;;;;;;;12.32;3.92;;;;;;;7.36;100.00;101590.47;5068047;28;20162;-69
2024/02/13 10:59:35;;;;;;;8.43;3.80;;;;;;;6.94;100.00;101598.47;5071224;28;20109;-68
2024/02/13 11:02:23;;;;;;;15.77;4.18;;;;;;;6.81;100.00;101604.88;5082484;28;20411;-68
2024/02/13 11:05:12;;;;;;;11.18;4.18;;;;;;;6.82;100.00;101604.63;5075624;28;20073;-67
2024/02/13 11:08:01;;;;;;;11.50;4.05;;;;;;;6.88;100.00;101600.22;4719843;28;10000078;-69
2024/02/13 11:10:49;;;;;;;12.80;3.55;;;;;;;6.95;100.00;101610.97;5063897;28;20422;-68
2024/02/13 11:13:39;;;;;;;10.27;3.78;;;;;;;7.06;100.00;101615.66;5076737;28;20059;-69
2024/02/13 11:16:33;;;;;;;10.82;4.20;;;;;;;7.17;100.00;101619.50;5104630;28;20149;-68
2024/02/13 11:19:42;;;;;;;12.45;4.00;;;;;;;7.18;100.00;101615.72;5068736;28;20051;-68
2024/02/13 11:22:37;;;;;;;12.52;4.15;;;;;;;7.35;100.00;101616.78;5090919;28;20040;-67
2024/02/13 11:25:39;;;;;;;14.05;4.70;;;;;;;7.30;100.00;101605.78;5064185;28;20420;-68
2024/02/13 11:28:38;;;;;;;12.68;4.63;;;;;;;7.41;100.00;101609.63;5097531;28;20047;-68
2024/02/13 11:31:29;;;;;;;9.00;3.38;;;;;;;7.32;100.00;101606.38;5109902;28;20067;-68
2024/02/13 11:34:19;;;;;;;14.95;5.03;;;;;;;7.51;100.00;101600.97;5097024;28;20100;-69
2024/02/13 11:37:18;;;;;;;12.40;4.75;;;;;;;7.62;100.00;101606.41;5110960;28;20126;-69
2024/02/13 11:40:08;;;;;;;11.20;4.38;;;;;;;8.08;100.00;101596.81;5111089;28;20050;-68
2024/02/13 11:43:24;;;;;;;13.55;3.88;;;;;;;7.75;100.00;101615.47;5111651;28;20051;-69
2024/02/13 11:46:13;;;;;;;10.93;3.78;;;;;;;7.55;100.00;101611.13;5111251;28;20112;-69
2024/02/13 11:49:06;;;;;;;9.52;3.17;;;;;;;7.47;100.00;101614.13;5082143;28;20546;-68
2024/02/13 11:51:56;;;;;;;8.93;3.55;;;;;;;7.80;100.00;101594.72;5076357;28;20423;-68
2024/02/13 11:54:47;;;;;;;19.77;5.38;;;;;;;8.40;100.00;101599.25;5064864;28;20047;-68
2024/02/13 11:57:35;;;;;;;16.08;4.10;;;;;;;8.43;100.00;101601.50;5090768;28;20044;-68
2024/02/13 12:00:23;;;;;;;13.45;3.80;;;;;;;8.07;100.00;101602.47;5089688;28;20046;-68
2024/02/13 12:03:25;;;;;;;13.45;3.95;;;;;;;8.02;100.00;101596.91;5076620;28;20047;-67
2024/02/13 12:06:13;;;;;;;12.65;4.28;;;;;;;7.95;100.00;101591.56;5089747;28;20044;-68
2024/02/13 12:09:02;;;;;;;10.30;3.80;;;;;;;8.29;100.00;101598.13;5100895;28;20040;-68
2024/02/13 12:11:51;;;;;;;8.70;3.33;;;;;;;7.86;100.00;101590.22;5096995;28;20644;-68
2024/02/13 12:14:42;;;;;;;9.18;3.35;;;;;;;7.94;100.00;101587.22;5096263;28;20423;-68
2024/02/13 12:17:33;;;;;;;10.27;3.78;;;;;;;8.29;100.00;101581.00;5110395;28;20036;-68
2024/02/13 12:20:26;;;;;;;8.93;3.20;;;;;;;8.05;100.00;101582.84;5100398;27;20176;-68
2024/02/13 12:23:16;;;;;;;13.55;4.40;;;;;;;8.13;100.00;101578.97;5130537;27;20042;-68
2024/02/13 12:26:08;;;;;;;9.75;3.60;;;;;;;7.98;100.00;101577.53;5115630;27;20521;-68
2024/02/13 12:28:59;;;;;;;10.07;3.30;;;;;;;7.86;100.00;101571.25;5092671;27;20496;-67
2024/02/13 12:31:48;;;;;;;14.23;5.20;;;;;;;8.08;100.00;101580.53;5089823;27;20059;-67
2024/02/13 12:34:36;;;;;;;12.85;5.40;;;;;;;8.16;100.00;101579.34;5090765;28;20135;-68
2024/02/13 12:37:25;;;;;;;14.52;4.50;;;;;;;8.47;100.00;101580.13;5084075;28;20054;-68
2024/02/13 12:40:15;;;;;;;9.32;3.65;;;;;;;8.35;100.00;101571.94;5095014;28;20100;-68
2024/02/13 12:43:03;;;;;;;15.85;6.22;;;;;;;8.34;100.00;101573.00;5074413;28;20040;-68
2024/02/13 12:45:51;;;;;;;13.50;4.60;;;;;;;8.91;100.00;101569.72;5091221;28;20044;-68
2024/02/13 12:48:42;;;;;;;13.02;4.57;;;;;;;8.51;100.00;101565.00;5094747;28;20044;-69
2024/02/13 12:51:31;;;;;;;18.48;7.63;;;;;;;8.39;100.00;101559.53;5095297;28;20084;-67
2024/02/13 12:54:20;;;;;;;16.02;5.55;;;;;;;8.35;100.00;101561.09;5095283;28;20043;-69
2024/02/13 12:57:11;;;;;;;11.93;3.80;;;;;;;8.21;100.00;101559.66;5109182;27;20050;-68
2024/02/13 12:59:59;;;;;;;11.70;4.70;;;;;;;8.49;100.00;101556.25;5090428;28;20055;-66
2024/02/13 13:02:49;;;;;;;9.57;2.70;;;;;;;8.19;100.00;101556.34;5091007;28;20500;-68